sensor_id;sensor_type;location;lat;lon;timestamp;P1;durP1;ratioP1;P2;durP2;ratioP2
22579;SDS011;11456;47.030;15.396;2022-08-07T00:01:15;3.92;;;2.40;;
22579;SDS011;11456;47.030;15.396;2022-08-07T00:04:03;4.80;;;2.00;;
22579;SDS011;11456;47.030;15.396;2022-08-07T00:06:31;2.83;;;2.22;;
22579;SDS011;11456;47.030;15.396;2022-08-07T00:09:00;3.40;;;2.20;;
22579;SDS011;11456;47.030;15.396;2022-08-07T00:11:42;2.65;;;2.35;;
22579;SDS011;11456;47.030;15.396;2022-08-07T00:14:23;5.50;;;2.85;;
22579;SDS011;11456;47.030;15.396;2022-08-07T00:16:59;2.75;;;2.30;;
22579;SDS011;11456;47.030;15.396;2022-08-07T00:19:27;4.82;;;2.03;;
22579;SDS011;11456;47.030;15.396;2022-08-07T00:22:14;2.95;;;2.65;;
22579;SDS011;11456;47.030;15.396;2022-08-07T00:25:00;3.25;;;2.45;;
22579;SDS011;11456;47.030;15.396;2022-08-07T00:27:42;4.22;;;2.30;;
22579;SDS011;11456;47.030;15.396;2022-08-07T00:30:22;3.78;;;2.38;;
22579;SDS011;11456;47.030;15.396;2022-08-07T00:32:54;2.70;;;2.42;;
22579;SDS011;11456;47.030;15.396;2022-08-07T00:35:25;2.75;;;2.30;;
22579;SDS011;11456;47.030;15.396;2022-08-07T00:37:55;4.35;;;2.20;;
22579;SDS011;11456;47.030;15.396;2022-08-07T00:40:22;4.07;;;2.70;;
22579;SDS011;11456;47.030;15.396;2022-08-07T00:43:04;8.40;;;2.70;;
22579;SDS011;11456;47.030;15.396;2022-08-07T00:45:36;3.30;;;2.20;;
22579;SDS011;11456;47.030;15.396;2022-08-07T00:48:03;3.88;;;2.50;;
22579;SDS011;11456;47.030;15.396;2022-08-07T00:50:37;4.30;;;2.20;;
22579;SDS011;11456;47.030;15.396;2022-08-07T00:53:17;3.22;;;2.40;;
22579;SDS011;11456;47.030;15.396;2022-08-07T00:55:46;4.72;;;2.53;;
22579;SDS011;11456;47.030;15.396;2022-08-07T00:58:28;2.97;;;2.38;;
22579;SDS011;11456;47.030;15.396;2022-08-07T01:00:55;3.03;;;2.40;;
22579;SDS011;11456;47.030;15.396;2022-08-07T01:03:22;4.10;;;2.33;;
22579;SDS011;11456;47.030;15.396;2022-08-07T01:06:09;2.60;;;2.15;;
22579;SDS011;11456;47.030;15.396;2022-08-07T01:08:38;3.95;;;2.10;;
22579;SDS011;11456;47.030;15.396;2022-08-07T01:11:19;2.58;;;2.10;;
22579;SDS011;11456;47.030;15.396;2022-08-07T01:14:07;2.78;;;2.17;;
22579;SDS011;11456;47.030;15.396;2022-08-07T01:16:34;4.15;;;2.22;;
22579;SDS011;11456;47.030;15.396;2022-08-07T01:19:03;4.55;;;2.40;;
22579;SDS011;11456;47.030;15.396;2022-08-07T01:21:45;2.97;;;2.10;;
22579;SDS011;11456;47.030;15.396;2022-08-07T01:24:13;2.92;;;2.30;;
22579;SDS011;11456;47.030;15.396;2022-08-07T01:26:48;2.72;;;2.30;;
22579;SDS011;11456;47.030;15.396;2022-08-07T01:29:19;3.10;;;2.15;;
22579;SDS011;11456;47.030;15.396;2022-08-07T01:31:50;4.47;;;2.22;;
22579;SDS011;11456;47.030;15.396;2022-08-07T01:34:18;2.80;;;2.13;;
22579;SDS011;11456;47.030;15.396;2022-08-07T01:36:57;3.10;;;2.17;;
22579;SDS011;11456;47.030;15.396;2022-08-07T01:39:27;2.75;;;1.98;;
22579;SDS011;11456;47.030;15.396;2022-08-07T01:42:26;2.25;;;2.00;;
22579;SDS011;11456;47.030;15.396;2022-08-07T01:47:47;2.10;;;1.90;;
22579;SDS011;11456;47.030;15.396;2022-08-07T01:50:35;2.30;;;2.10;;
22579;SDS011;11456;47.030;15.396;2022-08-07T01:53:08;3.33;;;2.05;;
22579;SDS011;11456;47.030;15.396;2022-08-07T01:55:55;2.63;;;2.00;;
22579;SDS011;11456;47.030;15.396;2022-08-07T01:58:26;4.22;;;2.03;;
22579;SDS011;11456;47.030;15.396;2022-08-07T02:01:02;2.10;;;1.80;;
22579;SDS011;11456;47.030;15.396;2022-08-07T02:03:59;2.70;;;2.22;;
22579;SDS011;11456;47.030;15.396;2022-08-07T02:06:30;3.70;;;2.33;;
22579;SDS011;11456;47.030;15.396;2022-08-07T02:09:04;2.58;;;1.98;;
22579;SDS011;11456;47.030;15.396;2022-08-07T02:11:38;3.60;;;2.20;;
22579;SDS011;11456;47.030;15.396;2022-08-07T02:14:30;4.63;;;2.22;;
22579;SDS011;11456;47.030;15.396;2022-08-07T02:17:12;2.65;;;2.15;;
22579;SDS011;11456;47.030;15.396;2022-08-07T02:19:53;7.72;;;2.25;;
22579;SDS011;11456;47.030;15.396;2022-08-07T02:25:07;3.35;;;2.55;;
22579;SDS011;11456;47.030;15.396;2022-08-07T02:27:51;2.20;;;2.03;;
22579;SDS011;11456;47.030;15.396;2022-08-07T02:30:20;6.07;;;2.30;;
22579;SDS011;11456;47.030;15.396;2022-08-07T02:32:51;3.28;;;2.47;;
22579;SDS011;11456;47.030;15.396;2022-08-07T02:35:35;3.35;;;2.30;;
22579;SDS011;11456;47.030;15.396;2022-08-07T02:38:27;3.30;;;2.17;;
22579;SDS011;11456;47.030;15.396;2022-08-07T02:40:59;4.80;;;2.38;;
22579;SDS011;11456;47.030;15.396;2022-08-07T02:43:30;5.00;;;2.72;;
22579;SDS011;11456;47.030;15.396;2022-08-07T02:46:04;4.78;;;2.30;;
22579;SDS011;11456;47.030;15.396;2022-08-07T02:48:34;2.50;;;2.15;;
22579;SDS011;11456;47.030;15.396;2022-08-07T02:51:05;3.03;;;2.40;;
22579;SDS011;11456;47.030;15.396;2022-08-07T02:53:54;3.05;;;2.50;;
22579;SDS011;11456;47.030;15.396;2022-08-07T02:56:23;2.53;;;2.33;;
22579;SDS011;11456;47.030;15.396;2022-08-07T02:58:56;4.03;;;2.40;;
22579;SDS011;11456;47.030;15.396;2022-08-07T03:01:29;3.78;;;2.33;;
22579;SDS011;11456;47.030;15.396;2022-08-07T03:04:05;5.75;;;2.50;;
22579;SDS011;11456;47.030;15.396;2022-08-07T03:06:40;3.38;;;2.50;;
22579;SDS011;11456;47.030;15.396;2022-08-07T03:09:12;2.90;;;2.60;;
22579;SDS011;11456;47.030;15.396;2022-08-07T03:12:00;2.50;;;2.30;;
22579;SDS011;11456;47.030;15.396;2022-08-07T03:14:31;3.72;;;2.50;;
22579;SDS011;11456;47.030;15.396;2022-08-07T03:17:02;4.00;;;2.50;;
22579;SDS011;11456;47.030;15.396;2022-08-07T03:19:31;4.75;;;2.45;;
22579;SDS011;11456;47.030;15.396;2022-08-07T03:22:04;3.30;;;2.55;;
22579;SDS011;11456;47.030;15.396;2022-08-07T03:24:33;4.35;;;2.30;;
22579;SDS011;11456;47.030;15.396;2022-08-07T03:27:03;4.15;;;2.78;;
22579;SDS011;11456;47.030;15.396;2022-08-07T03:29:47;2.88;;;2.55;;
22579;SDS011;11456;47.030;15.396;2022-08-07T03:32:26;4.43;;;2.60;;
22579;SDS011;11456;47.030;15.396;2022-08-07T03:35:00;2.85;;;2.53;;
22579;SDS011;11456;47.030;15.396;2022-08-07T03:37:44;3.25;;;2.50;;
22579;SDS011;11456;47.030;15.396;2022-08-07T03:40:23;3.00;;;2.70;;
22579;SDS011;11456;47.030;15.396;2022-08-07T03:43:06;3.58;;;2.75;;
22579;SDS011;11456;47.030;15.396;2022-08-07T03:45:40;4.22;;;2.85;;
22579;SDS011;11456;47.030;15.396;2022-08-07T03:48:15;4.60;;;2.67;;
22579;SDS011;11456;47.030;15.396;2022-08-07T03:50:41;5.10;;;2.80;;
22579;SDS011;11456;47.030;15.396;2022-08-07T03:53:24;3.38;;;2.63;;
22579;SDS011;11456;47.030;15.396;2022-08-07T03:56:13;7.13;;;2.80;;
22579;SDS011;11456;47.030;15.396;2022-08-07T03:59:00;2.95;;;2.63;;
22579;SDS011;11456;47.030;15.396;2022-08-07T04:01:41;5.78;;;2.70;;
22579;SDS011;11456;47.030;15.396;2022-08-07T04:04:16;6.80;;;2.90;;
22579;SDS011;11456;47.030;15.396;2022-08-07T04:06:48;3.53;;;2.58;;
22579;SDS011;11456;47.030;15.396;2022-08-07T04:09:18;3.78;;;2.80;;
22579;SDS011;11456;47.030;15.396;2022-08-07T04:11:50;4.55;;;2.70;;
22579;SDS011;11456;47.030;15.396;2022-08-07T04:14:38;4.97;;;2.78;;
22579;SDS011;11456;47.030;15.396;2022-08-07T04:17:15;4.18;;;2.70;;
22579;SDS011;11456;47.030;15.396;2022-08-07T04:19:49;2.70;;;2.50;;
22579;SDS011;11456;47.030;15.396;2022-08-07T04:22:21;4.25;;;2.97;;
22579;SDS011;11456;47.030;15.396;2022-08-07T04:24:59;2.80;;;2.60;;
22579;SDS011;11456;47.030;15.396;2022-08-07T04:27:29;6.35;;;2.70;;
22579;SDS011;11456;47.030;15.396;2022-08-07T04:30:08;2.88;;;2.58;;
22579;SDS011;11456;47.030;15.396;2022-08-07T04:32:59;5.63;;;2.80;;
22579;SDS011;11456;47.030;15.396;2022-08-07T04:35:37;3.28;;;2.58;;
22579;SDS011;11456;47.030;15.396;2022-08-07T04:38:12;3.67;;;2.45;;
22579;SDS011;11456;47.030;15.396;2022-08-07T04:40:46;3.35;;;2.58;;
22579;SDS011;11456;47.030;15.396;2022-08-07T04:43:30;3.85;;;2.30;;
22579;SDS011;11456;47.030;15.396;2022-08-07T04:46:34;4.70;;;2.40;;
22579;SDS011;11456;47.030;15.396;2022-08-07T04:54:51;3.55;;;2.35;;
22579;SDS011;11456;47.030;15.396;2022-08-07T04:57:28;3.63;;;2.30;;
22579;SDS011;11456;47.030;15.396;2022-08-07T05:00:39;2.75;;;2.20;;
22579;SDS011;11456;47.030;15.396;2022-08-07T05:06:31;2.83;;;2.05;;
22579;SDS011;11456;47.030;15.396;2022-08-07T05:09:31;3.35;;;2.40;;
22579;SDS011;11456;47.030;15.396;2022-08-07T05:12:14;4.28;;;2.20;;
22579;SDS011;11456;47.030;15.396;2022-08-07T05:15:05;4.43;;;2.40;;
22579;SDS011;11456;47.030;15.396;2022-08-07T05:17:54;2.28;;;2.08;;
22579;SDS011;11456;47.030;15.396;2022-08-07T05:20:45;5.95;;;2.45;;
22579;SDS011;11456;47.030;15.396;2022-08-07T05:23:26;3.08;;;2.60;;
22579;SDS011;11456;47.030;15.396;2022-08-07T05:26:19;2.58;;;2.20;;
22579;SDS011;11456;47.030;15.396;2022-08-07T05:28:58;3.40;;;2.10;;
22579;SDS011;11456;47.030;15.396;2022-08-07T05:31:32;4.60;;;2.75;;
22579;SDS011;11456;47.030;15.396;2022-08-07T05:34:08;3.70;;;2.42;;
22579;SDS011;11456;47.030;15.396;2022-08-07T05:36:41;3.53;;;2.72;;
22579;SDS011;11456;47.030;15.396;2022-08-07T05:39:39;4.38;;;2.83;;
22579;SDS011;11456;47.030;15.396;2022-08-07T05:42:26;3.00;;;2.45;;
22579;SDS011;11456;47.030;15.396;2022-08-07T05:45:03;3.15;;;2.40;;
22579;SDS011;11456;47.030;15.396;2022-08-07T05:47:52;3.45;;;2.45;;
22579;SDS011;11456;47.030;15.396;2022-08-07T05:50:32;3.97;;;2.53;;
22579;SDS011;11456;47.030;15.396;2022-08-07T05:53:01;6.22;;;2.45;;
22579;SDS011;11456;47.030;15.396;2022-08-07T05:55:31;2.67;;;2.47;;
22579;SDS011;11456;47.030;15.396;2022-08-07T05:58:21;3.13;;;2.50;;
22579;SDS011;11456;47.030;15.396;2022-08-07T06:01:08;6.20;;;2.70;;
22579;SDS011;11456;47.030;15.396;2022-08-07T06:03:42;5.15;;;2.40;;
22579;SDS011;11456;47.030;15.396;2022-08-07T06:06:25;3.60;;;2.30;;
22579;SDS011;11456;47.030;15.396;2022-08-07T06:09:00;3.55;;;2.35;;
22579;SDS011;11456;47.030;15.396;2022-08-07T06:11:32;4.85;;;2.45;;
22579;SDS011;11456;47.030;15.396;2022-08-07T06:14:00;2.60;;;2.22;;
22579;SDS011;11456;47.030;15.396;2022-08-07T06:16:51;2.63;;;2.40;;
22579;SDS011;11456;47.030;15.396;2022-08-07T06:19:32;4.45;;;2.50;;
22579;SDS011;11456;47.030;15.396;2022-08-07T06:22:21;4.82;;;2.55;;
22579;SDS011;11456;47.030;15.396;2022-08-07T06:25:02;4.97;;;2.30;;
22579;SDS011;11456;47.030;15.396;2022-08-07T06:27:31;3.67;;;2.70;;
22579;SDS011;11456;47.030;15.396;2022-08-07T06:30:19;5.72;;;2.60;;
22579;SDS011;11456;47.030;15.396;2022-08-07T06:32:57;3.38;;;2.72;;
22579;SDS011;11456;47.030;15.396;2022-08-07T06:35:24;2.88;;;2.40;;
22579;SDS011;11456;47.030;15.396;2022-08-07T06:38:11;4.20;;;2.00;;
22579;SDS011;11456;47.030;15.396;2022-08-07T06:40:49;2.60;;;2.13;;
22579;SDS011;11456;47.030;15.396;2022-08-07T06:43:20;3.30;;;2.17;;
22579;SDS011;11456;47.030;15.396;2022-08-07T06:46:11;2.40;;;2.00;;
22579;SDS011;11456;47.030;15.396;2022-08-07T06:48:39;3.97;;;2.15;;
22579;SDS011;11456;47.030;15.396;2022-08-07T06:51:13;3.13;;;2.10;;
22579;SDS011;11456;47.030;15.396;2022-08-07T06:54:02;3.00;;;2.00;;
22579;SDS011;11456;47.030;15.396;2022-08-07T06:56:50;3.17;;;2.10;;
22579;SDS011;11456;47.030;15.396;2022-08-07T06:59:28;3.58;;;2.00;;
22579;SDS011;11456;47.030;15.396;2022-08-07T07:02:20;3.95;;;2.15;;
22579;SDS011;11456;47.030;15.396;2022-08-07T07:05:10;2.30;;;1.85;;
22579;SDS011;11456;47.030;15.396;2022-08-07T07:07:38;6.20;;;1.77;;
22579;SDS011;11456;47.030;15.396;2022-08-07T07:10:28;3.95;;;2.22;;
22579;SDS011;11456;47.030;15.396;2022-08-07T07:16:02;3.53;;;2.30;;
22579;SDS011;11456;47.030;15.396;2022-08-07T07:18:43;3.47;;;2.17;;
22579;SDS011;11456;47.030;15.396;2022-08-07T07:21:22;3.90;;;2.03;;
22579;SDS011;11456;47.030;15.396;2022-08-07T07:24:12;1.90;;;1.75;;
22579;SDS011;11456;47.030;15.396;2022-08-07T07:26:42;2.20;;;1.80;;
22579;SDS011;11456;47.030;15.396;2022-08-07T07:29:17;3.85;;;1.92;;
22579;SDS011;11456;47.030;15.396;2022-08-07T07:32:08;7.13;;;2.03;;
22579;SDS011;11456;47.030;15.396;2022-08-07T07:34:41;1.87;;;1.70;;
22579;SDS011;11456;47.030;15.396;2022-08-07T07:37:14;3.13;;;1.88;;
22579;SDS011;11456;47.030;15.396;2022-08-07T07:40:04;2.20;;;1.95;;
22579;SDS011;11456;47.030;15.396;2022-08-07T07:42:41;1.95;;;1.70;;
22579;SDS011;11456;47.030;15.396;2022-08-07T07:45:17;1.90;;;1.73;;
22579;SDS011;11456;47.030;15.396;2022-08-07T07:48:06;2.75;;;2.00;;
22579;SDS011;11456;47.030;15.396;2022-08-07T07:50:36;3.33;;;1.85;;
22579;SDS011;11456;47.030;15.396;2022-08-07T07:53:08;2.03;;;1.92;;
22579;SDS011;11456;47.030;15.396;2022-08-07T07:55:46;1.90;;;1.75;;
22579;SDS011;11456;47.030;15.396;2022-08-07T07:58:27;3.83;;;1.67;;
22579;SDS011;11456;47.030;15.396;2022-08-07T08:01:05;2.50;;;2.13;;
22579;SDS011;11456;47.030;15.396;2022-08-07T08:03:56;3.00;;;1.73;;
22579;SDS011;11456;47.030;15.396;2022-08-07T08:06:37;1.90;;;1.63;;
22579;SDS011;11456;47.030;15.396;2022-08-07T08:09:18;2.10;;;1.80;;
22579;SDS011;11456;47.030;15.396;2022-08-07T08:11:50;2.92;;;1.67;;
22579;SDS011;11456;47.030;15.396;2022-08-07T08:14:32;2.13;;;1.92;;
22579;SDS011;11456;47.030;15.396;2022-08-07T08:17:03;1.85;;;1.63;;
22579;SDS011;11456;47.030;15.396;2022-08-07T08:19:55;2.17;;;1.70;;
22579;SDS011;11456;47.030;15.396;2022-08-07T08:22:46;2.83;;;1.85;;
22579;SDS011;11456;47.030;15.396;2022-08-07T08:25:35;3.47;;;2.20;;
22579;SDS011;11456;47.030;15.396;2022-08-07T08:28:29;2.47;;;1.80;;
22579;SDS011;11456;47.030;15.396;2022-08-07T08:31:04;1.90;;;1.70;;
22579;SDS011;11456;47.030;15.396;2022-08-07T08:33:41;2.28;;;1.70;;
22579;SDS011;11456;47.030;15.396;2022-08-07T08:36:15;2.03;;;1.70;;
22579;SDS011;11456;47.030;15.396;2022-08-07T08:38:55;3.80;;;2.10;;
22579;SDS011;11456;47.030;15.396;2022-08-07T08:50:29;5.80;;;1.85;;
22579;SDS011;11456;47.030;15.396;2022-08-07T08:53:11;3.17;;;1.90;;
22579;SDS011;11456;47.030;15.396;2022-08-07T08:55:41;2.42;;;1.88;;
22579;SDS011;11456;47.030;15.396;2022-08-07T08:58:33;2.70;;;1.85;;
22579;SDS011;11456;47.030;15.396;2022-08-07T09:01:11;3.13;;;1.77;;
22579;SDS011;11456;47.030;15.396;2022-08-07T09:03:49;2.65;;;1.85;;
22579;SDS011;11456;47.030;15.396;2022-08-07T09:06:28;3.28;;;1.70;;
22579;SDS011;11456;47.030;15.396;2022-08-07T09:12:29;3.25;;;2.00;;
22579;SDS011;11456;47.030;15.396;2022-08-07T09:39:07;3.60;;;2.10;;
22579;SDS011;11456;47.030;15.396;2022-08-07T09:51:23;2.13;;;1.80;;
22579;SDS011;11456;47.030;15.396;2022-08-07T10:08:36;1.95;;;1.70;;
22579;SDS011;11456;47.030;15.396;2022-08-07T10:14:38;3.58;;;1.90;;
22579;SDS011;11456;47.030;15.396;2022-08-07T10:17:38;1.70;;;1.60;;
22579;SDS011;11456;47.030;15.396;2022-08-07T10:30:17;4.25;;;3.72;;
22579;SDS011;11456;47.030;15.396;2022-08-07T10:50:25;2.75;;;1.48;;
22579;SDS011;11456;47.030;15.396;2022-08-07T10:53:06;2.40;;;1.63;;
22579;SDS011;11456;47.030;15.396;2022-08-07T10:55:41;1.65;;;1.55;;
22579;SDS011;11456;47.030;15.396;2022-08-07T11:03:38;2.33;;;1.50;;
22579;SDS011;11456;47.030;15.396;2022-08-07T11:06:24;2.85;;;1.63;;
22579;SDS011;11456;47.030;15.396;2022-08-07T11:08:58;4.22;;;1.88;;
22579;SDS011;11456;47.030;15.396;2022-08-07T11:11:53;2.13;;;1.83;;
22579;SDS011;11456;47.030;15.396;2022-08-07T11:14:32;4.40;;;1.80;;
22579;SDS011;11456;47.030;15.396;2022-08-07T11:17:26;4.05;;;1.50;;
22579;SDS011;11456;47.030;15.396;2022-08-07T11:20:18;1.77;;;1.60;;
22579;SDS011;11456;47.030;15.396;2022-08-07T11:22:53;2.38;;;1.45;;
22579;SDS011;11456;47.030;15.396;2022-08-07T11:25:36;1.75;;;1.50;;
22579;SDS011;11456;47.030;15.396;2022-08-07T11:28:29;8.05;;;3.65;;
22579;SDS011;11456;47.030;15.396;2022-08-07T11:41:43;1.50;;;1.40;;
22579;SDS011;11456;47.030;15.396;2022-08-07T11:47:35;2.20;;;1.50;;
22579;SDS011;11456;47.030;15.396;2022-08-07T11:50:46;1.50;;;1.40;;
22579;SDS011;11456;47.030;15.396;2022-08-07T11:53:29;6.70;;;3.15;;
22579;SDS011;11456;47.030;15.396;2022-08-07T11:56:20;2.15;;;1.58;;
22579;SDS011;11456;47.030;15.396;2022-08-07T11:59:05;2.17;;;1.63;;
22579;SDS011;11456;47.030;15.396;2022-08-07T12:08:31;4.03;;;1.50;;
22579;SDS011;11456;47.030;15.396;2022-08-07T12:11:12;1.95;;;1.50;;
22579;SDS011;11456;47.030;15.396;2022-08-07T12:16:35;2.78;;;1.75;;
22579;SDS011;11456;47.030;15.396;2022-08-07T12:25:33;1.80;;;1.50;;
22579;SDS011;11456;47.030;15.396;2022-08-07T12:28:48;3.42;;;1.80;;
22579;SDS011;11456;47.030;15.396;2022-08-07T12:34:29;2.85;;;1.65;;
22579;SDS011;11456;47.030;15.396;2022-08-07T12:37:00;2.72;;;1.60;;
22579;SDS011;11456;47.030;15.396;2022-08-07T12:39:41;3.07;;;1.70;;
22579;SDS011;11456;47.030;15.396;2022-08-07T12:42:19;2.10;;;1.70;;
22579;SDS011;11456;47.030;15.396;2022-08-07T12:44:53;2.25;;;1.60;;
22579;SDS011;11456;47.030;15.396;2022-08-07T12:50:12;2.97;;;1.60;;
22579;SDS011;11456;47.030;15.396;2022-08-07T12:53:10;2.92;;;1.80;;
22579;SDS011;11456;47.030;15.396;2022-08-07T12:58:36;2.55;;;1.60;;
22579;SDS011;11456;47.030;15.396;2022-08-07T13:01:29;2.75;;;1.50;;
22579;SDS011;11456;47.030;15.396;2022-08-07T13:10:36;1.88;;;1.70;;
22579;SDS011;11456;47.030;15.396;2022-08-07T13:13:31;1.90;;;1.80;;
22579;SDS011;11456;47.030;15.396;2022-08-07T13:16:16;1.70;;;1.60;;
22579;SDS011;11456;47.030;15.396;2022-08-07T13:22:18;4.50;;;1.80;;
22579;SDS011;11456;47.030;15.396;2022-08-07T13:30:17;2.38;;;1.92;;
22579;SDS011;11456;47.030;15.396;2022-08-07T13:33:06;2.63;;;1.80;;
22579;SDS011;11456;47.030;15.396;2022-08-07T13:35:59;4.18;;;1.75;;
22579;SDS011;11456;47.030;15.396;2022-08-07T13:41:26;2.03;;;1.75;;
22579;SDS011;11456;47.030;15.396;2022-08-07T13:44:06;2.22;;;1.65;;
22579;SDS011;11456;47.030;15.396;2022-08-07T13:46:40;5.07;;;1.73;;
22579;SDS011;11456;47.030;15.396;2022-08-07T13:49:17;1.70;;;1.60;;
22579;SDS011;11456;47.030;15.396;2022-08-07T13:52:06;2.78;;;1.85;;
22579;SDS011;11456;47.030;15.396;2022-08-07T13:54:54;1.92;;;1.80;;
22579;SDS011;11456;47.030;15.396;2022-08-07T13:57:24;3.30;;;1.80;;
22579;SDS011;11456;47.030;15.396;2022-08-07T14:00:04;3.65;;;2.10;;
22579;SDS011;11456;47.030;15.396;2022-08-07T14:02:51;3.72;;;1.70;;
22579;SDS011;11456;47.030;15.396;2022-08-07T14:05:21;4.20;;;1.73;;
22579;SDS011;11456;47.030;15.396;2022-08-07T14:08:02;2.05;;;1.65;;
22579;SDS011;11456;47.030;15.396;2022-08-07T14:10:36;2.03;;;1.80;;
22579;SDS011;11456;47.030;15.396;2022-08-07T14:13:09;3.33;;;1.83;;
22579;SDS011;11456;47.030;15.396;2022-08-07T14:15:47;2.42;;;1.60;;
22579;SDS011;11456;47.030;15.396;2022-08-07T14:21:17;4.00;;;1.70;;
22579;SDS011;11456;47.030;15.396;2022-08-07T14:24:20;2.28;;;1.90;;
22579;SDS011;11456;47.030;15.396;2022-08-07T14:29:26;4.97;;;1.83;;
22579;SDS011;11456;47.030;15.396;2022-08-07T14:32:16;2.95;;;1.80;;
22579;SDS011;11456;47.030;15.396;2022-08-07T14:34:45;7.25;;;1.90;;
22579;SDS011;11456;47.030;15.396;2022-08-07T14:37:17;2.20;;;1.83;;
22579;SDS011;11456;47.030;15.396;2022-08-07T14:40:04;3.47;;;1.80;;
22579;SDS011;11456;47.030;15.396;2022-08-07T14:42:55;3.15;;;1.70;;
22579;SDS011;11456;47.030;15.396;2022-08-07T14:45:46;3.33;;;1.75;;
22579;SDS011;11456;47.030;15.396;2022-08-07T14:48:20;2.13;;;1.60;;
22579;SDS011;11456;47.030;15.396;2022-08-07T14:50:53;2.00;;;1.60;;
22579;SDS011;11456;47.030;15.396;2022-08-07T14:53:26;2.28;;;1.80;;
22579;SDS011;11456;47.030;15.396;2022-08-07T14:56:17;2.20;;;1.80;;
22579;SDS011;11456;47.030;15.396;2022-08-07T14:58:56;2.40;;;2.10;;
22579;SDS011;11456;47.030;15.396;2022-08-07T15:01:29;2.20;;;2.00;;
22579;SDS011;11456;47.030;15.396;2022-08-07T15:04:16;2.90;;;1.85;;
22579;SDS011;11456;47.030;15.396;2022-08-07T15:06:50;3.00;;;1.90;;
22579;SDS011;11456;47.030;15.396;2022-08-07T15:09:18;2.50;;;1.95;;
22579;SDS011;11456;47.030;15.396;2022-08-07T15:12:41;1.85;;;1.58;;
22579;SDS011;11456;47.030;15.396;2022-08-07T15:15:08;4.47;;;1.85;;
22579;SDS011;11456;47.030;15.396;2022-08-07T15:17:51;5.47;;;1.88;;
22579;SDS011;11456;47.030;15.396;2022-08-07T15:20:24;3.60;;;1.90;;
22579;SDS011;11456;47.030;15.396;2022-08-07T15:23:24;2.75;;;1.85;;
22579;SDS011;11456;47.030;15.396;2022-08-07T15:26:13;1.80;;;1.70;;
22579;SDS011;11456;47.030;15.396;2022-08-07T15:28:46;3.65;;;1.80;;
22579;SDS011;11456;47.030;15.396;2022-08-07T15:31:26;2.90;;;1.90;;
22579;SDS011;11456;47.030;15.396;2022-08-07T15:34:13;3.97;;;1.90;;
22579;SDS011;11456;47.030;15.396;2022-08-07T15:36:43;2.42;;;1.67;;
22579;SDS011;11456;47.030;15.396;2022-08-07T15:39:30;2.65;;;1.90;;
22579;SDS011;11456;47.030;15.396;2022-08-07T15:45:24;2.55;;;1.90;;
22579;SDS011;11456;47.030;15.396;2022-08-07T15:48:25;1.77;;;1.58;;
22579;SDS011;11456;47.030;15.396;2022-08-07T15:53:38;1.70;;;1.60;;
22579;SDS011;11456;47.030;15.396;2022-08-07T15:56:18;3.38;;;1.90;;
22579;SDS011;11456;47.030;15.396;2022-08-07T15:58:55;1.90;;;1.70;;
22579;SDS011;11456;47.030;15.396;2022-08-07T16:01:26;2.65;;;1.80;;
22579;SDS011;11456;47.030;15.396;2022-08-07T16:04:09;4.47;;;1.70;;
22579;SDS011;11456;47.030;15.396;2022-08-07T16:06:48;3.25;;;1.73;;
22579;SDS011;11456;47.030;15.396;2022-08-07T16:09:28;2.03;;;1.58;;
22579;SDS011;11456;47.030;15.396;2022-08-07T16:12:09;3.10;;;1.90;;
22579;SDS011;11456;47.030;15.396;2022-08-07T16:20:28;4.38;;;1.70;;
22579;SDS011;11456;47.030;15.396;2022-08-07T16:32:09;2.85;;;1.92;;
22579;SDS011;11456;47.030;15.396;2022-08-07T16:35:13;4.20;;;1.67;;
22579;SDS011;11456;47.030;15.396;2022-08-07T16:44:33;2.22;;;1.83;;
22579;SDS011;11456;47.030;15.396;2022-08-07T16:53:54;5.65;;;2.40;;
22579;SDS011;11456;47.030;15.396;2022-08-07T16:56:47;4.75;;;2.38;;
22579;SDS011;11456;47.030;15.396;2022-08-07T17:08:44;2.28;;;2.08;;
22579;SDS011;11456;47.030;15.396;2022-08-07T17:11:55;4.25;;;1.77;;
22579;SDS011;11456;47.030;15.396;2022-08-07T17:15:03;4.78;;;1.80;;
22579;SDS011;11456;47.030;15.396;2022-08-07T17:29:08;3.88;;;1.83;;
22579;SDS011;11456;47.030;15.396;2022-08-07T17:32:04;2.42;;;1.60;;
22579;SDS011;11456;47.030;15.396;2022-08-07T17:35:03;5.07;;;1.85;;
22579;SDS011;11456;47.030;15.396;2022-08-07T17:37:58;5.90;;;1.98;;
22579;SDS011;11456;47.030;15.396;2022-08-07T17:40:57;3.00;;;1.58;;
22579;SDS011;11456;47.030;15.396;2022-08-07T17:43:55;7.03;;;1.60;;
22579;SDS011;11456;47.030;15.396;2022-08-07T17:46:40;3.15;;;1.63;;
22579;SDS011;11456;47.030;15.396;2022-08-07T17:51:51;2.85;;;1.58;;
22579;SDS011;11456;47.030;15.396;2022-08-07T17:54:34;4.45;;;1.75;;
22579;SDS011;11456;47.030;15.396;2022-08-07T18:00:28;1.73;;;1.55;;
22579;SDS011;11456;47.030;15.396;2022-08-07T18:06:19;4.20;;;1.70;;
22579;SDS011;11456;47.030;15.396;2022-08-07T18:09:03;7.20;;;1.88;;
22579;SDS011;11456;47.030;15.396;2022-08-07T18:11:44;4.40;;;1.90;;
22579;SDS011;11456;47.030;15.396;2022-08-07T18:14:57;3.00;;;1.67;;
22579;SDS011;11456;47.030;15.396;2022-08-07T18:17:48;4.75;;;1.92;;
22579;SDS011;11456;47.030;15.396;2022-08-07T18:20:42;6.75;;;1.75;;
22579;SDS011;11456;47.030;15.396;2022-08-07T18:26:13;3.05;;;1.52;;
22579;SDS011;11456;47.030;15.396;2022-08-07T18:28:48;1.98;;;1.58;;
22579;SDS011;11456;47.030;15.396;2022-08-07T18:34:29;5.47;;;1.80;;
22579;SDS011;11456;47.030;15.396;2022-08-07T18:37:30;5.65;;;1.83;;
22579;SDS011;11456;47.030;15.396;2022-08-07T18:40:45;2.53;;;1.60;;
22579;SDS011;11456;47.030;15.396;2022-08-07T18:46:33;3.17;;;1.50;;
22579;SDS011;11456;47.030;15.396;2022-08-07T19:01:14;2.92;;;1.67;;
22579;SDS011;11456;47.030;15.396;2022-08-07T19:04:12;2.95;;;1.65;;
22579;SDS011;11456;47.030;15.396;2022-08-07T19:07:00;10.02;;;2.00;;
22579;SDS011;11456;47.030;15.396;2022-08-07T19:13:07;3.97;;;2.00;;
22579;SDS011;11456;47.030;15.396;2022-08-07T19:24:56;3.97;;;1.73;;
22579;SDS011;11456;47.030;15.396;2022-08-07T19:27:31;2.72;;;1.70;;
22579;SDS011;11456;47.030;15.396;2022-08-07T19:30:20;3.88;;;1.73;;
22579;SDS011;11456;47.030;15.396;2022-08-07T19:33:10;3.10;;;1.88;;
22579;SDS011;11456;47.030;15.396;2022-08-07T19:35:41;2.05;;;1.85;;
22579;SDS011;11456;47.030;15.396;2022-08-07T19:38:13;7.18;;;1.65;;
22579;SDS011;11456;47.030;15.396;2022-08-07T19:40:43;3.95;;;1.80;;
22579;SDS011;11456;47.030;15.396;2022-08-07T19:43:17;2.67;;;1.45;;
22579;SDS011;11456;47.030;15.396;2022-08-07T19:46:06;4.80;;;2.00;;
22579;SDS011;11456;47.030;15.396;2022-08-07T19:48:40;3.10;;;2.35;;
22579;SDS011;11456;47.030;15.396;2022-08-07T19:51:20;7.38;;;3.17;;
22579;SDS011;11456;47.030;15.396;2022-08-07T19:54:07;5.05;;;3.40;;
22579;SDS011;11456;47.030;15.396;2022-08-07T19:56:58;7.80;;;3.10;;
22579;SDS011;11456;47.030;15.396;2022-08-07T19:59:48;5.20;;;2.10;;
22579;SDS011;11456;47.030;15.396;2022-08-07T20:02:30;4.40;;;2.08;;
22579;SDS011;11456;47.030;15.396;2022-08-07T20:05:05;2.35;;;2.00;;
22579;SDS011;11456;47.030;15.396;2022-08-07T20:07:35;3.40;;;2.03;;
22579;SDS011;11456;47.030;15.396;2022-08-07T20:10:20;5.85;;;1.83;;
22579;SDS011;11456;47.030;15.396;2022-08-07T20:13:21;6.10;;;2.03;;
22579;SDS011;11456;47.030;15.396;2022-08-07T20:15:57;4.25;;;1.67;;
22579;SDS011;11456;47.030;15.396;2022-08-07T20:18:27;2.53;;;2.10;;
22579;SDS011;11456;47.030;15.396;2022-08-07T20:20:59;5.30;;;1.80;;
22579;SDS011;11456;47.030;15.396;2022-08-07T20:23:43;4.25;;;2.10;;
22579;SDS011;11456;47.030;15.396;2022-08-07T20:26:19;6.25;;;2.15;;